Terminal Aerodrome Forecast
Issued by NWS Charleston, WV

Home | Current Version | Previous Version | Text Only | Print | Product List | Glossary On
Versions: 1 2 3 4 5 6 7 8 9 10 11 12 13 14 15 16 17 18 19 20
000
FTUS41 KRLX 012300
TAFBKW
TAF
KBKW 012340Z 0200/0224 12008KT P6SM FEW035
     FM020400 09004KT P6SM SCT015
     FM020600 09004KT P6SM BKN010
     FM020900 00000KT 6SM BR BKN010
     FM021000 00000KT P6SM BKN010
     FM021400 00000KT P6SM BKN250
     FM021800 VRB03KT P6SM BKN250
     FM022100 31008KT P6SM BKN250
     FM022300 33005KT P6SM BKN250=

USA.gov is the U.S. government's official web portal to all federal, state and local government web resources and services.